DAOB/TID METAR and TAF weather

Enter ICAO airport designator
Station Type Date Time Source
DAOB METAR 2018/10/19 15:00 UTC NOAA

DAOB 191500Z 04008KT 9999 SCT030 21/14 Q1014


Station Type Date Time Source
DAOB Decoded METAR 2018/10/19 15:00 UTC NOAA

Tiaret, Algeria (DAOB) 35-15N 001-26E 1127M
Oct 19, 2018 - 11:00 AM EDT / 2018.10.19 1500 UTC
Wind: from the NE (040 degrees) at 9 MPH (8 KT):0
Visibility: greater than 7 mile(s):0
Sky conditions: partly cloudy
Temperature: 69 F (21 C)
Dew Point: 57 F (14 C)
Relative Humidity: 64%
Pressure (altimeter): 29.94 in. Hg (1014 hPa)
ob: DAOB 191500Z 04008KT 9999 SCT030 21/14 Q1014
cycle: 15

Station Type Date Time Source
DAOB TAF 2018/10/19 12:33 UTC NOAA

TAF DAOB 191100Z 1912/2012 14012KT 9999 SCT026 PROB30
TEMPO 1912/1918 FEW026CB


Example: see airport list